createdAt,value
2023-05-04T00:01:25.835Z,88798.97
2023-05-04T00:04:10.990Z,88812.56
2023-05-04T00:06:55.791Z,88806.81
2023-05-04T00:09:40.933Z,88804.72
2023-05-04T00:12:25.871Z,88807.34
2023-05-04T00:15:10.964Z,88802.44
2023-05-04T00:17:56.036Z,88805.94
2023-05-04T00:20:41.060Z,88803.31
2023-05-04T00:23:26.298Z,88801.03
2023-05-04T00:26:11.259Z,88797.16
2023-05-04T00:28:56.214Z,88800.09
2023-05-04T00:31:41.174Z,88802.66
2023-05-04T00:34:26.169Z,88802.84
2023-05-04T00:37:11.215Z,88798.66
2023-05-04T00:39:56.186Z,88788.69
2023-05-04T00:42:41.177Z,88789.22
2023-05-04T00:45:26.164Z,88782.59
2023-05-04T00:48:11.498Z,88775.81
2023-05-04T00:50:56.198Z,88789.72
2023-05-04T00:53:41.248Z,88784.00
2023-05-04T00:56:26.229Z,88781.38
2023-05-04T00:59:11.374Z,88782.09
2023-05-04T01:01:56.466Z,88784.69
2023-05-04T01:04:41.422Z,88784.31
2023-05-04T01:07:26.392Z,88781.72
2023-05-04T01:10:11.282Z,88780.81
2023-05-04T01:12:56.440Z,88786.38
2023-05-04T01:15:41.187Z,88783.94
2023-05-04T01:18:26.170Z,88781.63
2023-05-04T01:21:11.212Z,88781.94
2023-05-04T01:23:56.148Z,88776.53
2023-05-04T01:26:41.224Z,88784.50
2023-05-04T01:29:26.209Z,88788.84
2023-05-04T01:32:11.432Z,88785.84
2023-05-04T01:34:56.347Z,88783.03
2023-05-04T01:37:41.433Z,88781.13
2023-05-04T01:40:26.311Z,88777.66
2023-05-04T01:43:11.355Z,88778.66
2023-05-04T01:45:56.481Z,88785.09
2023-05-04T01:48:41.369Z,88783.50
2023-05-04T01:51:26.579Z,88779.13
2023-05-04T01:54:11.527Z,88788.56
2023-05-04T01:56:56.546Z,88781.94
2023-05-04T01:59:41.350Z,88792.88
2023-05-04T02:02:26.511Z,88792.38
2023-05-04T02:05:11.381Z,88785.94
2023-05-04T02:07:56.233Z,88789.94
2023-05-04T02:10:41.082Z,88797.78
2023-05-04T02:13:25.997Z,88793.78
2023-05-04T02:16:11.198Z,88799.38
2023-05-04T02:18:56.097Z,88795.84
2023-05-04T02:21:41.214Z,88796.38
2023-05-04T02:24:26.096Z,88790.47
2023-05-04T02:27:11.168Z,88797.78
2023-05-04T02:29:56.202Z,88792.22
2023-05-04T02:32:41.209Z,88798.78
2023-05-04T02:35:26.214Z,88795.00
2023-05-04T02:38:11.045Z,88799.13
2023-05-04T02:40:56.020Z,88797.53
2023-05-04T02:43:41.024Z,88790.34
2023-05-04T02:46:26.064Z,88792.56
2023-05-04T02:49:11.052Z,88788.56
2023-05-04T02:51:56.232Z,88787.84
2023-05-04T02:54:41.236Z,88783.53
2023-05-04T02:57:26.036Z,88790.44
2023-05-04T03:00:11.293Z,88785.75
2023-05-04T03:02:56.315Z,88787.22
2023-05-04T03:05:41.390Z,88784.75
2023-05-04T03:08:26.469Z,88790.78
2023-05-04T03:11:11.447Z,88790.78
2023-05-04T03:13:56.325Z,88786.06
2023-05-04T03:16:41.464Z,88802.44
2023-05-04T03:19:26.523Z,88787.66
2023-05-04T03:22:11.496Z,88791.59
2023-05-04T03:24:56.587Z,88783.09
2023-05-04T03:27:41.573Z,88788.84
2023-05-04T03:30:26.822Z,88789.56
2023-05-04T03:33:11.839Z,88781.56
2023-05-04T03:35:56.861Z,88775.31
2023-05-04T03:38:41.784Z,88770.69
2023-05-04T03:41:26.748Z,88770.84
2023-05-04T03:44:11.851Z,88768.44
2023-05-04T03:46:56.952Z,88765.84
2023-05-04T03:49:42.125Z,88766.53
2023-05-04T03:52:27.121Z,88761.31
2023-05-04T03:55:12.108Z,88760.22
2023-05-04T03:57:57.097Z,88761.44
2023-05-04T04:00:41.926Z,88763.34
2023-05-04T04:03:27.197Z,88763.34
2023-05-04T04:06:12.036Z,88766.47
2023-05-04T04:08:57.159Z,88770.28
2023-05-04T04:11:42.124Z,88769.00
2023-05-04T04:14:27.312Z,88772.13
2023-05-04T04:17:12.283Z,88776.50
2023-05-04T04:19:57.324Z,88770.69
2023-05-04T04:22:42.309Z,88774.47
2023-05-04T04:25:27.253Z,88770.59
2023-05-04T04:28:12.369Z,88777.09
2023-05-04T04:30:57.266Z,88781.88
2023-05-04T04:33:42.362Z,88782.56
2023-05-04T04:36:27.405Z,88784.47
2023-05-04T04:39:12.504Z,88789.59
2023-05-04T04:41:57.476Z,88794.47
2023-05-04T04:44:42.647Z,88796.25
2023-05-04T04:47:27.782Z,88801.47
2023-05-04T04:50:12.662Z,88803.97
2023-05-04T04:52:58.878Z,88809.19
2023-05-04T04:55:43.681Z,88816.50
2023-05-04T04:58:28.912Z,88810.97
2023-05-04T05:01:13.822Z,88810.97
2023-05-04T05:03:58.994Z,88818.50
2023-05-04T05:06:43.999Z,88820.91
2023-05-04T05:09:28.869Z,88814.34
2023-05-04T05:12:13.983Z,88819.88
2023-05-04T05:14:58.978Z,88812.16
2023-05-04T05:17:44.031Z,88816.19
2023-05-04T05:20:28.956Z,88815.81
2023-05-04T05:23:14.045Z,88819.13
2023-05-04T05:25:59.850Z,88818.09
2023-05-04T05:28:46.447Z,88822.81
2023-05-04T05:31:31.811Z,88823.72
2023-05-04T05:34:16.564Z,88828.22
2023-05-04T05:37:01.518Z,88834.94
2023-05-04T05:39:46.340Z,88833.66
2023-05-04T05:42:31.369Z,88844.34
2023-05-04T05:45:16.298Z,88834.59
2023-05-04T05:48:01.266Z,88840.06
2023-05-04T05:50:46.230Z,88833.50
2023-05-04T05:53:31.086Z,88834.69
2023-05-04T05:56:16.088Z,88834.19
2023-05-04T05:59:00.826Z,88831.34
2023-05-04T06:01:45.686Z,88834.09
2023-05-04T06:04:30.576Z,88831.03
2023-05-04T06:07:15.518Z,88839.94
2023-05-04T06:10:00.385Z,88840.66
2023-05-04T06:12:45.256Z,88828.88
2023-05-04T06:15:30.230Z,88826.59
2023-05-04T06:18:15.043Z,88827.94
2023-05-04T06:20:59.946Z,88823.38
2023-05-04T06:23:44.880Z,88825.03
2023-05-04T06:26:29.729Z,88829.63
2023-05-04T06:29:14.614Z,88823.94
2023-05-04T06:31:59.592Z,88823.47
2023-05-04T06:34:44.404Z,88821.34
2023-05-04T06:37:29.354Z,88817.13
2023-05-04T06:40:14.347Z,88813.72
2023-05-04T06:42:59.328Z,88820.56
2023-05-04T06:45:44.437Z,88820.00
2023-05-04T06:48:29.282Z,88828.00
2023-05-04T06:51:14.375Z,88819.97
2023-05-04T06:53:59.351Z,88816.50
2023-05-04T06:56:44.323Z,88816.53
2023-05-04T06:59:29.308Z,88821.47
2023-05-04T07:02:14.049Z,88824.16
2023-05-04T07:04:58.919Z,88818.91
2023-05-04T07:07:43.807Z,88821.34
2023-05-04T07:10:29.013Z,88824.00
2023-05-04T07:13:13.914Z,88819.38
2023-05-04T07:15:59.044Z,88820.41
2023-05-04T07:18:43.866Z,88826.66
2023-05-04T07:21:29.735Z,88826.22
2023-05-04T07:24:14.812Z,88815.78
2023-05-04T07:26:59.816Z,88813.84
2023-05-04T07:29:44.757Z,88816.72
2023-05-04T07:32:29.620Z,88815.41
2023-05-04T07:35:14.734Z,88810.00
2023-05-04T07:37:59.608Z,88816.00
2023-05-04T07:40:44.793Z,88807.53
2023-05-04T07:43:29.534Z,88806.41
2023-05-04T07:46:14.740Z,88804.91
2023-05-04T07:48:59.878Z,88801.69
2023-05-04T07:51:44.751Z,88795.78
2023-05-04T07:54:29.683Z,88793.84
2023-05-04T07:57:14.585Z,88794.66
2023-05-04T07:59:59.637Z,88799.16
2023-05-04T08:02:44.681Z,88795.50
2023-05-04T08:05:29.598Z,88794.88
2023-05-04T08:08:14.694Z,88793.19
2023-05-04T08:11:11.970Z,88791.19
2023-05-04T08:14:01.500Z,88795.84
2023-05-04T08:16:46.489Z,88789.88
2023-05-04T08:19:31.604Z,88787.53
2023-05-04T08:22:16.527Z,88789.06
2023-05-04T08:25:01.642Z,88779.44
2023-05-04T08:27:46.779Z,88789.19
2023-05-04T08:30:31.790Z,88787.78
2023-05-04T08:33:16.927Z,88785.56
2023-05-04T08:36:01.822Z,88786.84
2023-05-04T08:38:46.765Z,88782.25
2023-05-04T08:41:31.816Z,88785.00
2023-05-04T08:44:16.849Z,88789.31
2023-05-04T08:47:01.857Z,88789.91
2023-05-04T08:49:46.788Z,88784.56
2023-05-04T08:52:31.807Z,88789.91
2023-05-04T08:55:16.764Z,88792.66
2023-05-04T08:58:01.928Z,88785.72
2023-05-04T09:00:46.873Z,88787.53
2023-05-04T09:03:32.030Z,88787.63
2023-05-04T09:06:16.847Z,88794.41
2023-05-04T09:09:01.924Z,88786.41
2023-05-04T09:11:47.024Z,88789.25
2023-05-04T09:14:31.951Z,88792.47
2023-05-04T09:17:17.012Z,88788.34
2023-05-04T09:20:02.071Z,88782.03
2023-05-04T09:22:47.100Z,88782.09
2023-05-04T09:25:31.999Z,88781.25
2023-05-04T09:28:17.055Z,88786.19
2023-05-04T09:31:02.051Z,88773.16
2023-05-04T09:33:47.005Z,88766.38
2023-05-04T09:36:32.198Z,88771.09
2023-05-04T09:39:17.261Z,88765.88
2023-05-04T09:42:02.349Z,88762.28
2023-05-04T09:44:47.271Z,88759.75
2023-05-04T09:47:32.249Z,88748.91
2023-05-04T09:50:19.839Z,88755.09
2023-05-04T09:53:05.582Z,88749.06
2023-05-04T09:55:50.788Z,88747.97
2023-05-04T09:58:35.487Z,88742.25
2023-05-04T10:01:20.608Z,88740.78
2023-05-04T10:04:05.440Z,88745.84
2023-05-04T10:06:50.508Z,88748.16
2023-05-04T10:09:35.719Z,88744.22
2023-05-04T10:12:20.706Z,88753.31
2023-05-04T10:15:05.976Z,88753.31
2023-05-04T10:17:51.203Z,88750.16
2023-05-04T10:20:36.294Z,88749.34
2023-05-04T10:23:23.671Z,88741.78
2023-05-04T10:26:08.725Z,88738.34
2023-05-04T10:28:53.780Z,88738.72
2023-05-04T10:31:38.760Z,88745.19
2023-05-04T10:34:23.745Z,88734.34
2023-05-04T10:37:08.809Z,88735.88
2023-05-04T10:39:53.937Z,88732.66
2023-05-04T10:42:38.867Z,88731.31
2023-05-04T10:45:23.931Z,88728.88
2023-05-04T10:48:08.869Z,88724.75
2023-05-04T10:50:53.874Z,88731.13
2023-05-04T10:53:39.068Z,88722.06
2023-05-04T10:56:24.052Z,88712.97
2023-05-04T10:59:09.214Z,88710.06
2023-05-04T11:01:54.128Z,88713.16
2023-05-04T11:04:39.199Z,88706.53
2023-05-04T11:07:24.188Z,88700.09
2023-05-04T11:10:09.229Z,88701.16
2023-05-04T11:12:54.257Z,88699.63
2023-05-04T11:15:39.136Z,88698.88
2023-05-04T11:18:24.343Z,88704.41
2023-05-04T11:21:09.241Z,88700.34
2023-05-04T11:23:54.289Z,88698.72
2023-05-04T11:26:39.320Z,88689.97
2023-05-04T11:29:24.386Z,88686.66
2023-05-04T11:32:09.470Z,88692.06
2023-05-04T11:34:54.527Z,88676.34
2023-05-04T11:37:39.539Z,88684.16
2023-05-04T11:40:24.499Z,88672.91
2023-05-04T11:43:09.404Z,88676.53
2023-05-04T11:45:54.560Z,88672.59
2023-05-04T11:48:39.689Z,88670.53
2023-05-04T11:51:24.769Z,88675.88
2023-05-04T11:54:09.864Z,88667.22
2023-05-04T11:56:54.927Z,88666.44
2023-05-04T11:59:39.868Z,88669.19
2023-05-04T12:02:25.035Z,88665.75
2023-05-04T12:05:10.099Z,88662.56
2023-05-04T12:07:55.107Z,88666.13
2023-05-04T12:10:40.096Z,88661.50
2023-05-04T12:13:25.155Z,88661.53
2023-05-04T12:16:10.271Z,88665.31
2023-05-04T12:18:55.137Z,88657.88
2023-05-04T12:21:40.176Z,88657.34
2023-05-04T12:24:25.175Z,88662.22
2023-05-04T12:27:10.358Z,88655.22
2023-05-04T12:29:55.261Z,88653.94
2023-05-04T12:32:40.286Z,88647.59
2023-05-04T12:35:25.113Z,88652.50
2023-05-04T12:38:09.984Z,88641.59
2023-05-04T12:40:55.052Z,88634.09
2023-05-04T12:43:39.939Z,88641.47
2023-05-04T12:46:25.034Z,88633.81
2023-05-04T12:49:09.933Z,88630.44
2023-05-04T12:51:54.975Z,88628.47
2023-05-04T12:54:39.882Z,88621.75
2023-05-04T12:57:24.896Z,88623.28
2023-05-04T13:00:09.753Z,88625.38
2023-05-04T13:02:54.796Z,88613.19
2023-05-04T13:05:39.857Z,88608.38
2023-05-04T13:08:24.824Z,88609.53
2023-05-04T13:11:09.896Z,88613.34
2023-05-04T13:13:54.761Z,88616.00
2023-05-04T13:16:39.733Z,88599.56
2023-05-04T13:19:24.834Z,88605.44
2023-05-04T13:22:09.905Z,88598.66
2023-05-04T13:24:54.818Z,88601.47
2023-05-04T13:27:39.810Z,88585.72
2023-05-04T13:30:24.787Z,88596.38
2023-05-04T13:33:20.682Z,88590.16
2023-05-04T13:36:12.522Z,88588.19
2023-05-04T13:38:57.489Z,88590.59
2023-05-04T13:41:42.367Z,88589.84
2023-05-04T13:44:27.634Z,88590.44
2023-05-04T13:47:12.577Z,88586.00
2023-05-04T13:49:57.739Z,88578.13
2023-05-04T13:52:42.783Z,88583.31
2023-05-04T13:55:27.841Z,88573.19
2023-05-04T13:58:12.836Z,88575.22
2023-05-04T14:00:58.002Z,88576.78
2023-05-04T14:03:42.840Z,88572.06
2023-05-04T14:06:27.800Z,88574.81
2023-05-04T14:09:13.083Z,88574.03
2023-05-04T14:11:57.982Z,88566.56
2023-05-04T14:14:43.010Z,88571.00
2023-05-04T14:17:27.865Z,88571.81
2023-05-04T14:20:12.876Z,88564.06
2023-05-04T14:22:57.833Z,88560.50
2023-05-04T14:25:42.936Z,88564.50
2023-05-04T14:28:28.105Z,88563.69
2023-05-04T14:31:13.062Z,88558.75
2023-05-04T14:33:58.111Z,88563.25
2023-05-04T14:36:43.030Z,88561.13
2023-05-04T14:39:27.965Z,88557.59
2023-05-04T14:42:12.801Z,88564.31
2023-05-04T14:44:57.889Z,88565.13
2023-05-04T14:47:42.926Z,88557.19
2023-05-04T14:50:27.898Z,88563.44
2023-05-04T14:53:12.572Z,88563.97
2023-05-04T14:55:57.500Z,88564.91
2023-05-04T14:58:42.530Z,88573.53
2023-05-04T15:01:27.506Z,88576.88
2023-05-04T15:04:12.568Z,88579.31
2023-05-04T15:06:57.432Z,88574.38
2023-05-04T15:09:42.479Z,88571.06
2023-05-04T15:12:27.501Z,88569.41
2023-05-04T15:15:12.435Z,88575.25
2023-05-04T15:17:57.636Z,88575.09
2023-05-04T15:20:42.589Z,88580.66
2023-05-04T15:23:27.830Z,88576.41
2023-05-04T15:26:12.744Z,88568.69
2023-05-04T15:28:57.876Z,88566.88
2023-05-04T15:31:42.881Z,88573.34
2023-05-04T15:34:27.755Z,88564.88
2023-05-04T15:37:12.766Z,88563.84
2023-05-04T15:39:59.111Z,88555.09
2023-05-04T15:42:46.446Z,88561.56
2023-05-04T15:45:31.239Z,88562.78
2023-05-04T15:48:16.261Z,88566.47
2023-05-04T15:51:01.377Z,88562.72
2023-05-04T15:53:46.339Z,88556.84
2023-05-04T15:56:31.544Z,88557.25
2023-05-04T15:59:16.543Z,88563.00
2023-05-04T16:02:01.567Z,88571.38
2023-05-04T16:04:46.587Z,88570.22
2023-05-04T16:07:31.390Z,88567.69
2023-05-04T16:10:16.477Z,88564.22
2023-05-04T16:13:01.471Z,88564.38
2023-05-04T16:15:46.530Z,88559.34
2023-05-04T16:18:31.394Z,88564.25
2023-05-04T16:21:16.385Z,88561.00
2023-05-04T16:24:01.315Z,88552.63
2023-05-04T16:26:46.318Z,88559.22
2023-05-04T16:29:31.265Z,88557.94
2023-05-04T16:32:16.649Z,88557.06
2023-05-04T16:35:01.253Z,88557.53
2023-05-04T16:37:46.129Z,88555.75
2023-05-04T16:40:31.191Z,88563.34
2023-05-04T16:43:15.950Z,88563.34
2023-05-04T16:46:00.999Z,88566.38
2023-05-04T16:48:45.847Z,88556.59
2023-05-04T16:51:30.867Z,88567.00
2023-05-04T16:54:15.735Z,88568.44
2023-05-04T16:57:00.731Z,88567.88
2023-05-04T16:59:45.675Z,88566.56
2023-05-04T17:02:30.795Z,88569.09
2023-05-04T17:05:15.798Z,88573.31
2023-05-04T17:08:00.822Z,88575.28
2023-05-04T17:10:45.886Z,88570.44
2023-05-04T17:13:30.710Z,88576.72
2023-05-04T17:16:15.863Z,88573.47
2023-05-04T17:19:00.813Z,88577.69
2023-05-04T17:21:45.672Z,88586.69
2023-05-04T17:24:30.592Z,88587.63
2023-05-04T17:27:15.579Z,88583.69
2023-05-04T17:30:00.607Z,88584.16
2023-05-04T17:32:45.476Z,88585.22
2023-05-04T17:35:30.531Z,88592.50
2023-05-04T17:38:15.516Z,88598.84
2023-05-04T17:41:00.550Z,88602.78
2023-05-04T17:43:45.497Z,88596.88
2023-05-04T17:46:30.538Z,88602.28
2023-05-04T17:49:15.553Z,88611.72
2023-05-04T17:52:00.549Z,88610.41
2023-05-04T17:54:45.850Z,88614.56
2023-05-04T17:57:30.475Z,88615.47
2023-05-04T18:00:15.541Z,88619.22
2023-05-04T18:03:00.444Z,88619.06
2023-05-04T18:05:45.333Z,88622.72
2023-05-04T18:08:30.358Z,88627.06
2023-05-04T18:11:15.264Z,88626.84
2023-05-04T18:14:00.510Z,88624.38
2023-05-04T18:16:45.380Z,88630.31
2023-05-04T18:19:30.520Z,88637.84
2023-05-04T18:22:15.555Z,88634.97
2023-05-04T18:25:00.563Z,88644.34
2023-05-04T18:27:45.438Z,88646.50
2023-05-04T18:30:30.499Z,88650.00
2023-05-04T18:33:15.461Z,88654.09
2023-05-04T18:36:00.436Z,88662.31
2023-05-04T18:38:45.441Z,88670.00
2023-05-04T18:41:30.460Z,88672.56
2023-05-04T18:44:15.618Z,88679.25
2023-05-04T18:47:00.563Z,88675.50
2023-05-04T18:49:45.607Z,88684.09
2023-05-04T18:52:30.648Z,88695.94
2023-05-04T18:55:15.711Z,88694.88
2023-05-04T18:58:00.872Z,88697.66
2023-05-04T19:00:45.768Z,88706.97
2023-05-04T19:03:30.913Z,88709.16
2023-05-04T19:06:15.786Z,88709.44
2023-05-04T19:09:00.869Z,88712.53
2023-05-04T19:11:45.892Z,88713.38
2023-05-04T19:14:30.885Z,88719.25
2023-05-04T19:17:15.973Z,88724.97
2023-05-04T19:20:00.868Z,88725.09
2023-05-04T19:22:45.841Z,88724.97
2023-05-04T19:25:34.805Z,88729.94
2023-05-04T19:28:20.300Z,88725.13
2023-05-04T19:31:05.374Z,88724.88
2023-05-04T19:33:50.238Z,88734.16
2023-05-04T19:36:35.480Z,88731.44
2023-05-04T19:39:20.371Z,88736.50
2023-05-04T19:42:05.369Z,88748.28
2023-05-04T19:44:50.322Z,88747.00
2023-05-04T19:47:35.419Z,88743.56
2023-05-04T19:50:20.337Z,88742.69
2023-05-04T19:53:05.352Z,88754.22
2023-05-04T19:55:50.460Z,88754.47
2023-05-04T19:58:35.330Z,88764.97
2023-05-04T20:01:20.440Z,88766.88
2023-05-04T20:04:05.238Z,88773.47
2023-05-04T20:06:50.169Z,88775.72
2023-05-04T20:09:35.083Z,88774.63
2023-05-04T20:12:20.033Z,88781.59
2023-05-04T20:15:05.084Z,88787.47
2023-05-04T20:17:50.071Z,88785.03
2023-05-04T20:20:35.329Z,88785.94
2023-05-04T20:23:19.981Z,88782.75
2023-05-04T20:26:06.088Z,88783.75
2023-05-04T20:28:51.039Z,88781.97
2023-05-04T20:31:36.163Z,88781.41
2023-05-04T20:34:21.213Z,88792.38
2023-05-04T20:37:06.127Z,88788.91
2023-05-04T20:39:51.128Z,88790.59
2023-05-04T20:42:36.165Z,88785.03
2023-05-04T20:45:21.208Z,88788.75
2023-05-04T20:48:06.234Z,88782.22
2023-05-04T20:50:54.945Z,88785.13
2023-05-04T20:53:44.923Z,88789.81
2023-05-04T20:56:30.116Z,88790.06
2023-05-04T20:59:15.098Z,88792.94
2023-05-04T21:02:00.174Z,88792.50
2023-05-04T21:04:45.187Z,88783.63
2023-05-04T21:07:30.261Z,88795.53
2023-05-04T21:10:15.147Z,88787.44
2023-05-04T21:13:00.254Z,88796.69
2023-05-04T21:15:45.122Z,88794.41
2023-05-04T21:18:30.136Z,88798.00
2023-05-04T21:21:15.159Z,88801.69
2023-05-04T21:24:00.165Z,88798.19
2023-05-04T21:26:45.197Z,88791.38
2023-05-04T21:29:30.272Z,88803.03
2023-05-04T21:32:15.299Z,88793.03
2023-05-04T21:35:00.278Z,88800.47
2023-05-04T21:37:45.276Z,88788.78
2023-05-04T21:40:30.521Z,88793.22
2023-05-04T21:43:15.516Z,88789.03
2023-05-04T21:46:00.629Z,88793.53
2023-05-04T21:48:45.446Z,88793.38
2023-05-04T21:51:30.469Z,88793.78
2023-05-04T21:54:15.438Z,88794.94
2023-05-04T21:57:00.719Z,88800.91
2023-05-04T21:59:46.367Z,88803.25
2023-05-04T22:02:32.210Z,88793.78
2023-05-04T22:05:17.214Z,88805.94
2023-05-04T22:08:02.073Z,88813.53
2023-05-04T22:10:47.130Z,88805.88
2023-05-04T22:13:32.017Z,88813.59
2023-05-04T22:16:17.053Z,88813.00
2023-05-04T22:19:02.090Z,88810.88
2023-05-04T22:21:46.904Z,88817.63
2023-05-04T22:24:31.977Z,88816.94
2023-05-04T22:27:16.863Z,88824.50
2023-05-04T22:30:01.999Z,88823.88
2023-05-04T22:32:47.155Z,88821.63
2023-05-04T22:35:32.136Z,88828.88
2023-05-04T22:38:17.001Z,88831.13
2023-05-04T22:41:02.047Z,88838.47
2023-05-04T22:43:47.085Z,88829.75
2023-05-04T22:46:32.062Z,88829.41
2023-05-04T22:49:16.999Z,88836.28
2023-05-04T22:52:01.880Z,88840.84
2023-05-04T22:54:47.035Z,88839.81
2023-05-04T22:57:31.827Z,88844.91
2023-05-04T23:00:16.837Z,88844.97
2023-05-04T23:03:01.709Z,88842.34
2023-05-04T23:05:46.651Z,88842.34
2023-05-04T23:08:31.711Z,88843.41
2023-05-04T23:11:16.791Z,88839.91
2023-05-04T23:14:01.966Z,88839.06
2023-05-04T23:16:46.930Z,88834.56
2023-05-04T23:19:32.033Z,88844.75
2023-05-04T23:22:17.334Z,88836.69
2023-05-04T23:25:02.125Z,88845.13
2023-05-04T23:27:47.101Z,88834.97
2023-05-04T23:30:32.063Z,88835.34
2023-05-04T23:33:17.217Z,88835.19
2023-05-04T23:36:02.149Z,88832.56
2023-05-04T23:38:47.304Z,88833.63
2023-05-04T23:41:32.200Z,88830.66
2023-05-04T23:44:17.222Z,88821.22
2023-05-04T23:47:02.105Z,88817.72
2023-05-04T23:49:47.083Z,88824.59
2023-05-04T23:52:32.110Z,88825.34
2023-05-04T23:55:17.051Z,88827.97
2023-05-04T23:58:02.160Z,88827.78
